createdAt,value
2018-05-21T00:00:06.979Z,0.00
2018-05-21T00:01:27.986Z,0.00
2018-05-21T00:02:06.977Z,0.00
2018-05-21T00:03:06.981Z,0.00
2018-05-21T00:04:07.057Z,0.00
2018-05-21T00:05:07.135Z,0.00
2018-05-21T00:06:07.070Z,0.00
2018-05-21T00:07:27.979Z,0.00
2018-05-21T00:08:06.972Z,0.00
2018-05-21T00:09:06.967Z,0.00
2018-05-21T00:10:06.966Z,0.00
2018-05-21T00:11:06.968Z,0.00
2018-05-21T00:12:06.966Z,0.00
2018-05-21T00:13:27.969Z,0.00
2018-05-21T00:14:06.959Z,0.00
2018-05-21T00:15:07.062Z,0.00
2018-05-21T00:16:06.955Z,0.00
2018-05-21T00:17:06.958Z,0.00
2018-05-21T00:18:06.953Z,0.00
2018-05-21T00:19:27.957Z,0.00
2018-05-21T00:20:06.981Z,0.00
2018-05-21T00:21:06.946Z,0.00
2018-05-21T00:22:06.945Z,0.00
2018-05-21T00:23:06.963Z,0.00
2018-05-21T00:24:06.944Z,0.00
2018-05-21T00:25:27.948Z,0.00
2018-05-21T00:26:06.950Z,0.00
2018-05-21T00:27:06.940Z,0.00
2018-05-21T00:28:06.953Z,0.00
2018-05-21T00:29:06.932Z,0.00
2018-05-21T00:30:06.932Z,0.00
2018-05-21T00:31:27.939Z,0.00
2018-05-21T00:32:06.930Z,0.00
2018-05-21T00:33:06.927Z,0.00
2018-05-21T00:34:06.925Z,0.00
2018-05-21T00:35:06.924Z,0.00
2018-05-21T00:36:06.922Z,0.00
2018-05-21T00:37:27.927Z,0.00
2018-05-21T00:38:06.917Z,0.00
2018-05-21T00:39:06.917Z,0.00
2018-05-21T00:40:06.916Z,0.00
2018-05-21T00:41:06.915Z,0.00
2018-05-21T00:42:06.911Z,0.00
2018-05-21T00:43:27.917Z,0.00
2018-05-21T00:44:06.911Z,0.00
2018-05-21T00:45:06.907Z,0.00
2018-05-21T00:46:06.915Z,0.00
2018-05-21T00:47:06.903Z,0.00
2018-05-21T00:48:06.901Z,0.00
2018-05-21T00:49:27.906Z,0.00
2018-05-21T00:50:06.905Z,0.00
2018-05-21T00:51:06.905Z,0.00
2018-05-21T00:52:06.895Z,0.00
2018-05-21T00:53:06.891Z,0.00
2018-05-21T00:54:06.894Z,0.00
2018-05-21T00:55:27.897Z,0.00
2018-05-21T00:56:06.887Z,0.00
2018-05-21T00:57:06.888Z,0.00
2018-05-21T00:58:06.885Z,0.00
2018-05-21T00:59:06.884Z,0.00
2018-05-21T01:00:06.885Z,0.00
2018-05-21T01:01:27.886Z,0.00
2018-05-21T01:02:06.876Z,0.00
2018-05-21T01:03:06.897Z,0.00
2018-05-21T01:04:06.874Z,0.00
2018-05-21T01:05:06.873Z,0.00
2018-05-21T01:06:06.870Z,0.00
2018-05-21T01:07:27.877Z,0.00
2018-05-21T01:08:06.868Z,0.00
2018-05-21T01:09:06.865Z,0.00
2018-05-21T01:10:06.863Z,0.00
2018-05-21T01:11:06.863Z,0.00
2018-05-21T01:12:06.859Z,0.00
2018-05-21T01:13:27.866Z,0.00
2018-05-21T01:14:06.856Z,0.00
2018-05-21T01:15:06.856Z,0.00
2018-05-21T01:16:06.852Z,0.00
2018-05-21T01:17:06.850Z,0.00
2018-05-21T01:18:06.848Z,0.00
2018-05-21T01:19:27.854Z,0.00
2018-05-21T01:20:06.844Z,0.00
2018-05-21T01:21:06.849Z,0.00
2018-05-21T01:22:06.841Z,0.00
2018-05-21T01:23:06.845Z,0.00
2018-05-21T01:24:06.876Z,0.00
2018-05-21T01:25:27.843Z,0.00
2018-05-21T01:26:06.891Z,0.00
2018-05-21T01:27:06.834Z,0.00
2018-05-21T01:28:06.829Z,0.00
2018-05-21T01:29:06.828Z,0.00
2018-05-21T01:30:06.828Z,0.00
2018-05-21T01:31:27.835Z,0.00
2018-05-21T01:32:06.824Z,0.00
2018-05-21T01:33:06.822Z,0.00
2018-05-21T01:34:06.819Z,0.00
2018-05-21T01:35:06.818Z,0.00
2018-05-21T01:36:06.813Z,0.00
2018-05-21T01:37:27.820Z,0.00
2018-05-21T01:38:06.809Z,0.00
2018-05-21T01:39:06.810Z,0.00
2018-05-21T01:40:06.835Z,0.00
2018-05-21T01:41:06.808Z,0.00
2018-05-21T01:42:06.804Z,0.00
2018-05-21T01:43:27.810Z,0.00
2018-05-21T01:44:06.798Z,0.00
2018-05-21T01:45:06.798Z,0.00
2018-05-21T01:46:06.800Z,0.00
2018-05-21T01:47:06.794Z,0.00
2018-05-21T01:48:06.797Z,0.00
2018-05-21T01:49:27.796Z,0.00
2018-05-21T01:50:06.792Z,0.00
2018-05-21T01:51:06.785Z,0.00
2018-05-21T01:52:06.782Z,0.00
2018-05-21T01:53:06.781Z,0.00
2018-05-21T01:54:06.779Z,0.00
2018-05-21T01:55:27.788Z,0.00
2018-05-21T01:56:06.776Z,0.00
2018-05-21T01:57:06.773Z,0.00
2018-05-21T01:58:06.773Z,0.00
2018-05-21T01:59:06.776Z,0.00
2018-05-21T02:00:06.773Z,0.00
2018-05-21T02:01:27.775Z,0.00
2018-05-21T02:02:06.772Z,0.00
2018-05-21T02:03:06.763Z,0.00
2018-05-21T02:04:06.762Z,0.00
2018-05-21T02:05:06.763Z,0.00
2018-05-21T02:06:06.758Z,0.00
2018-05-21T02:07:27.762Z,0.00
2018-05-21T02:08:06.757Z,0.00
2018-05-21T02:09:06.752Z,0.00
2018-05-21T02:10:06.749Z,0.00
2018-05-21T02:11:06.746Z,0.00
2018-05-21T02:12:06.744Z,0.00
2018-05-21T02:13:27.754Z,0.00
2018-05-21T02:14:06.756Z,0.00
2018-05-21T02:15:06.737Z,0.00
2018-05-21T02:16:06.735Z,0.00
2018-05-21T02:17:06.733Z,0.00
2018-05-21T02:18:06.734Z,0.00
2018-05-21T02:19:27.739Z,0.00
2018-05-21T02:20:06.796Z,0.00
2018-05-21T02:21:06.726Z,0.00
2018-05-21T02:22:06.724Z,0.00
2018-05-21T02:23:06.721Z,0.00
2018-05-21T02:24:06.726Z,0.00
2018-05-21T02:25:27.724Z,0.00
2018-05-21T02:26:06.716Z,0.00
2018-05-21T02:27:06.755Z,0.00
2018-05-21T02:28:06.711Z,0.00
2018-05-21T02:29:06.710Z,0.00
2018-05-21T02:30:06.707Z,0.00
2018-05-21T02:31:27.713Z,0.00
2018-05-21T02:32:06.703Z,0.00
2018-05-21T02:33:06.700Z,0.00
2018-05-21T02:34:06.699Z,0.00
2018-05-21T02:35:06.707Z,0.00
2018-05-21T02:36:06.693Z,0.00
2018-05-21T02:37:27.700Z,0.00
2018-05-21T02:38:06.689Z,0.00
2018-05-21T02:39:06.688Z,0.00
2018-05-21T02:40:06.689Z,0.00
2018-05-21T02:41:06.682Z,0.00
2018-05-21T02:42:06.681Z,0.00
2018-05-21T02:43:27.688Z,0.00
2018-05-21T02:44:06.677Z,0.00
2018-05-21T02:45:07.298Z,0.00
2018-05-21T02:46:06.675Z,0.00
2018-05-21T02:47:06.673Z,0.00
2018-05-21T02:48:06.668Z,0.00
2018-05-21T02:49:27.674Z,0.00
2018-05-21T02:50:06.664Z,0.00
2018-05-21T02:51:06.662Z,0.00
2018-05-21T02:52:06.674Z,0.00
2018-05-21T02:53:06.660Z,4.00
2018-05-21T02:54:07.298Z,4.00
2018-05-21T02:55:27.661Z,0.00
2018-05-21T02:56:06.651Z,0.00
2018-05-21T02:57:06.725Z,4.00
2018-05-21T02:58:06.648Z,4.00
2018-05-21T02:59:06.645Z,4.00
2018-05-21T03:00:06.646Z,4.00
2018-05-21T03:01:27.647Z,4.00
2018-05-21T03:02:06.637Z,4.00
2018-05-21T03:03:06.719Z,4.00
2018-05-21T03:04:06.639Z,8.00
2018-05-21T03:05:06.630Z,8.00
2018-05-21T03:06:06.629Z,8.00
2018-05-21T03:07:27.635Z,12.00
2018-05-21T03:08:06.625Z,12.00
2018-05-21T03:09:06.650Z,12.00
2018-05-21T03:10:06.662Z,12.00
2018-05-21T03:11:06.618Z,16.00
2018-05-21T03:12:06.615Z,16.00
2018-05-21T03:13:28.301Z,16.00
2018-05-21T03:14:06.611Z,20.00
2018-05-21T03:15:06.609Z,20.00
2018-05-21T03:16:06.608Z,24.00
2018-05-21T03:17:06.604Z,28.00
2018-05-21T03:18:06.602Z,28.00
2018-05-21T03:19:27.607Z,32.00
2018-05-21T03:20:06.607Z,36.00
2018-05-21T03:21:06.596Z,40.00
2018-05-21T03:22:06.593Z,44.00
2018-05-21T03:23:06.590Z,48.00
2018-05-21T03:24:06.588Z,52.00
2018-05-21T03:25:27.593Z,48.00
2018-05-21T03:26:06.582Z,56.00
2018-05-21T03:27:06.582Z,60.00
2018-05-21T03:28:06.579Z,64.00
2018-05-21T03:29:06.575Z,68.00
2018-05-21T03:30:06.575Z,76.00
2018-05-21T03:31:27.579Z,80.00
2018-05-21T03:32:06.570Z,84.00
2018-05-21T03:33:06.581Z,92.00
2018-05-21T03:34:06.566Z,96.00
2018-05-21T03:35:06.563Z,104.00
2018-05-21T03:36:06.560Z,108.00
2018-05-21T03:37:27.567Z,116.00
2018-05-21T03:38:06.555Z,112.00
2018-05-21T03:39:06.553Z,124.00
2018-05-21T03:40:06.550Z,136.00
2018-05-21T03:41:06.548Z,140.00
2018-05-21T03:42:06.576Z,148.00
2018-05-21T03:43:28.304Z,152.00
2018-05-21T03:44:06.541Z,160.00
2018-05-21T03:45:06.538Z,168.00
2018-05-21T03:46:06.536Z,176.00
2018-05-21T03:47:06.534Z,180.00
2018-05-21T03:48:06.531Z,188.00
2018-05-21T03:49:27.540Z,196.00
2018-05-21T03:50:06.529Z,204.00
2018-05-21T03:51:06.542Z,212.00
2018-05-21T03:52:06.527Z,220.00
2018-05-21T03:53:06.550Z,228.00
2018-05-21T03:54:06.519Z,236.00
2018-05-21T03:55:27.526Z,240.00
2018-05-21T03:56:06.514Z,252.00
2018-05-21T03:57:06.515Z,260.00
2018-05-21T03:58:06.510Z,268.00
2018-05-21T03:59:06.509Z,276.00
2018-05-21T04:00:06.505Z,284.00
2018-05-21T04:01:27.511Z,296.00
2018-05-21T04:02:06.500Z,308.00
2018-05-21T04:03:06.500Z,316.00
2018-05-21T04:04:06.495Z,320.00
2018-05-21T04:05:06.506Z,332.00
2018-05-21T04:06:06.492Z,336.00
2018-05-21T04:07:27.498Z,348.00
2018-05-21T04:08:06.489Z,356.00
2018-05-21T04:09:06.490Z,364.00
2018-05-21T04:10:06.527Z,368.00
2018-05-21T04:11:06.485Z,376.00
2018-05-21T04:12:06.477Z,388.00
2018-05-21T04:13:27.486Z,392.00
2018-05-21T04:14:06.475Z,400.00
2018-05-21T04:15:06.473Z,408.00
2018-05-21T04:16:06.470Z,416.00
2018-05-21T04:17:06.468Z,420.00
2018-05-21T04:18:06.469Z,428.00
2018-05-21T04:19:27.491Z,432.00
2018-05-21T04:20:06.466Z,444.00
2018-05-21T04:21:06.461Z,448.00
2018-05-21T04:22:06.460Z,460.00
2018-05-21T04:23:06.462Z,464.00
2018-05-21T04:24:06.461Z,472.00
2018-05-21T04:25:27.457Z,480.00
2018-05-21T04:26:06.460Z,488.00
2018-05-21T04:27:06.448Z,492.00
2018-05-21T04:28:06.443Z,500.00
2018-05-21T04:29:06.443Z,508.00
2018-05-21T04:30:06.441Z,520.00
2018-05-21T04:31:27.452Z,524.00
2018-05-21T04:32:06.443Z,528.00
2018-05-21T04:33:06.435Z,540.00
2018-05-21T04:34:06.440Z,544.00
2018-05-21T04:35:06.435Z,552.00
2018-05-21T04:36:06.432Z,560.00
2018-05-21T04:37:27.437Z,568.00
2018-05-21T04:38:06.428Z,572.00
2018-05-21T04:39:06.424Z,580.00
2018-05-21T04:40:06.421Z,588.00
2018-05-21T04:41:06.419Z,592.00
2018-05-21T04:42:06.417Z,600.00
2018-05-21T04:43:27.423Z,608.00
2018-05-21T04:44:06.412Z,616.00
2018-05-21T04:45:06.420Z,620.00
2018-05-21T04:46:06.413Z,628.00
2018-05-21T04:47:06.406Z,636.00
2018-05-21T04:48:06.411Z,644.00
2018-05-21T04:49:27.410Z,648.00
2018-05-21T04:50:06.403Z,656.00
2018-05-21T04:51:06.401Z,660.00
2018-05-21T04:52:06.399Z,672.00
2018-05-21T04:53:06.396Z,676.00
2018-05-21T04:54:06.394Z,684.00
2018-05-21T04:55:27.400Z,692.00
2018-05-21T04:56:06.395Z,696.00
2018-05-21T04:57:06.396Z,704.00
2018-05-21T04:58:06.390Z,712.00
2018-05-21T04:59:06.385Z,716.00
2018-05-21T05:00:06.389Z,720.00
2018-05-21T05:01:27.390Z,728.00
2018-05-21T05:02:06.381Z,736.00
2018-05-21T05:03:06.382Z,744.00
2018-05-21T05:04:06.378Z,748.00
2018-05-21T05:05:06.377Z,756.00
2018-05-21T05:06:06.375Z,764.00
2018-05-21T05:07:27.380Z,768.00
2018-05-21T05:08:06.398Z,776.00
2018-05-21T05:09:06.370Z,780.00
2018-05-21T05:10:06.369Z,792.00
2018-05-21T05:11:06.367Z,800.00
2018-05-21T05:12:06.368Z,812.00
2018-05-21T05:13:27.374Z,824.00
2018-05-21T05:14:06.365Z,840.00
2018-05-21T05:15:06.362Z,852.00
2018-05-21T05:16:06.361Z,864.00
2018-05-21T05:17:06.359Z,880.00
2018-05-21T05:18:06.357Z,896.00
2018-05-21T05:19:27.364Z,908.00
2018-05-21T05:20:06.358Z,924.00
2018-05-21T05:21:06.405Z,940.00
2018-05-21T05:22:06.378Z,956.00
2018-05-21T05:23:06.354Z,972.00
2018-05-21T05:24:06.354Z,996.00
2018-05-21T05:25:27.358Z,1012.00
2018-05-21T05:26:06.347Z,1032.00
2018-05-21T05:27:06.348Z,1048.00
2018-05-21T05:28:06.350Z,1068.00
2018-05-21T05:29:07.312Z,1084.00
2018-05-21T05:30:06.345Z,1100.00
2018-05-21T05:31:27.352Z,1116.00
2018-05-21T05:32:06.402Z,1140.00
2018-05-21T05:33:06.354Z,1156.00
2018-05-21T05:34:07.812Z,1168.00
2018-05-21T05:35:06.345Z,1184.00
2018-05-21T05:36:06.454Z,1204.00
2018-05-21T05:37:27.352Z,1220.00
2018-05-21T05:38:06.345Z,1240.00
2018-05-21T05:39:07.313Z,1260.00
2018-05-21T05:40:06.341Z,1284.00
2018-05-21T05:41:06.364Z,1304.00
2018-05-21T05:42:06.369Z,1336.00
2018-05-21T05:43:27.511Z,1368.00
2018-05-21T05:44:06.874Z,1400.00
2018-05-21T05:45:06.337Z,1440.00
2018-05-21T05:46:06.338Z,1472.00
2018-05-21T05:47:06.348Z,1496.00
2018-05-21T05:48:06.335Z,1516.00
2018-05-21T05:49:27.344Z,1524.00
2018-05-21T05:50:06.336Z,1528.00
2018-05-21T05:51:06.338Z,1536.00
2018-05-21T05:52:06.349Z,1544.00
2018-05-21T05:53:06.356Z,1564.00
2018-05-21T05:54:06.339Z,1576.00
2018-05-21T05:55:27.347Z,1592.00
2018-05-21T05:56:06.337Z,1604.00
2018-05-21T05:57:06.335Z,1616.00
2018-05-21T05:58:06.342Z,1628.00
2018-05-21T05:59:06.337Z,1640.00
2018-05-21T06:00:06.337Z,1644.00
2018-05-21T06:01:27.344Z,1672.00
2018-05-21T06:02:06.341Z,1652.00
2018-05-21T06:03:06.339Z,1676.00
2018-05-21T06:04:06.337Z,1696.00
2018-05-21T06:05:06.340Z,1724.00
2018-05-21T06:06:06.341Z,1756.00
2018-05-21T06:07:27.354Z,1904.00
2018-05-21T06:08:06.345Z,2400.00
2018-05-21T06:09:06.344Z,3036.00
2018-05-21T06:10:06.350Z,3376.00
2018-05-21T06:11:06.345Z,3436.00
2018-05-21T06:12:06.350Z,3416.00
2018-05-21T06:13:27.361Z,3432.00
2018-05-21T06:14:06.353Z,3448.00
2018-05-21T06:15:06.353Z,3472.00
2018-05-21T06:16:06.349Z,3500.00
2018-05-21T06:17:06.353Z,3504.00
2018-05-21T06:18:06.356Z,3500.00
2018-05-21T06:19:27.368Z,3500.00
2018-05-21T06:20:06.360Z,3516.00
2018-05-21T06:21:06.869Z,3532.00
2018-05-21T06:22:06.365Z,3544.00
2018-05-21T06:24:00.817Z,3564.00
2018-05-21T06:25:00.740Z,3556.00
2018-05-21T06:26:55.164Z,3596.00
2018-05-21T06:27:55.172Z,3608.00
2018-05-21T06:29:49.540Z,3648.00
2018-05-21T06:30:49.559Z,3652.00
2018-05-21T06:32:43.987Z,3696.00
2018-05-21T06:33:43.884Z,3728.00
2018-05-21T06:35:38.297Z,3720.00
2018-05-21T06:36:38.287Z,3732.00
2018-05-21T06:38:33.130Z,3808.00
2018-05-21T06:39:32.671Z,3820.00
2018-05-21T06:41:27.028Z,3864.00
2018-05-21T06:42:27.031Z,3856.00
2018-05-21T06:44:21.471Z,3908.00
2018-05-21T06:45:21.444Z,3960.00
2018-05-21T06:47:15.804Z,4008.00
2018-05-21T06:48:15.875Z,4056.00
2018-05-21T06:50:10.219Z,4152.00
2018-05-21T06:51:10.236Z,4184.00
2018-05-21T06:53:04.820Z,4340.00
2018-05-21T06:54:04.821Z,4492.00
2018-05-21T06:55:04.835Z,4600.00
2018-05-21T06:56:05.691Z,4676.00
2018-05-21T06:57:04.837Z,4780.00
2018-05-21T06:58:04.836Z,4868.00
2018-05-21T06:59:04.934Z,4984.00
2018-05-21T07:00:04.915Z,5116.00
2018-05-21T07:01:04.910Z,5236.00
2018-05-21T07:02:05.722Z,5288.00
2018-05-21T07:03:04.872Z,5380.00
2018-05-21T07:04:04.867Z,5460.00
2018-05-21T07:05:04.868Z,5476.00
2018-05-21T07:06:04.875Z,5520.00
2018-05-21T07:07:04.881Z,5576.00
2018-05-21T07:08:04.993Z,5592.00
2018-05-21T07:09:04.892Z,5592.00
2018-05-21T07:10:04.903Z,5588.00
2018-05-21T07:11:04.910Z,5680.00
2018-05-21T07:12:04.917Z,5744.00
2018-05-21T07:13:04.923Z,5808.00
2018-05-21T07:14:04.935Z,5868.00
2018-05-21T07:15:04.938Z,5884.00
2018-05-21T07:16:04.945Z,5920.00
2018-05-21T07:17:04.955Z,5924.00
2018-05-21T07:18:04.959Z,5980.00
2018-05-21T07:19:04.967Z,6020.00
2018-05-21T07:20:04.974Z,6088.00
2018-05-21T07:21:04.982Z,6160.00
2018-05-21T07:22:04.990Z,6200.00
2018-05-21T07:23:05.000Z,6192.00
2018-05-21T07:24:05.007Z,6196.00
2018-05-21T07:25:05.036Z,6208.00
2018-05-21T07:26:05.022Z,6244.00
2018-05-21T07:27:05.033Z,6284.00
2018-05-21T07:28:05.034Z,6332.00
2018-05-21T07:29:05.069Z,6352.00
2018-05-21T07:30:05.053Z,6372.00
2018-05-21T07:31:05.061Z,6388.00
2018-05-21T07:32:05.103Z,6412.00
2018-05-21T07:33:05.075Z,6472.00
2018-05-21T07:34:05.092Z,6540.00
2018-05-21T07:35:05.099Z,6564.00
2018-05-21T07:36:05.099Z,6600.00
2018-05-21T07:37:05.293Z,6620.00
2018-05-21T07:38:05.208Z,6696.00
2018-05-21T07:39:05.137Z,6704.00
2018-05-21T07:40:05.140Z,6748.00
2018-05-21T07:41:05.149Z,6768.00
2018-05-21T07:42:05.189Z,6812.00
2018-05-21T07:43:05.169Z,6872.00
2018-05-21T07:44:05.172Z,6920.00
2018-05-21T07:45:05.181Z,6960.00
2018-05-21T07:46:05.185Z,7036.00
2018-05-21T07:47:05.196Z,7112.00
2018-05-21T07:48:05.204Z,7128.00
2018-05-21T07:49:05.214Z,7200.00
2018-05-21T07:50:05.222Z,7296.00
2018-05-21T07:51:05.258Z,7412.00
2018-05-21T07:52:05.260Z,7496.00
2018-05-21T07:53:05.257Z,7580.00
2018-05-21T07:54:05.260Z,7632.00
2018-05-21T07:55:05.269Z,7740.00
2018-05-21T07:56:05.292Z,7792.00
2018-05-21T07:57:05.289Z,7892.00
2018-05-21T07:58:05.298Z,7952.00
2018-05-21T07:59:05.306Z,8028.00
2018-05-21T08:00:05.335Z,8096.00
2018-05-21T08:01:05.327Z,8116.00
2018-05-21T08:02:05.334Z,8228.00
2018-05-21T08:03:05.396Z,8264.00
2018-05-21T08:04:05.361Z,8360.00
2018-05-21T08:05:05.409Z,8424.00
2018-05-21T08:06:05.378Z,8532.00
2018-05-21T08:07:05.382Z,8572.00
2018-05-21T08:08:05.687Z,8680.00
2018-05-21T08:09:05.403Z,8792.00
2018-05-21T08:10:05.415Z,8900.00
2018-05-21T08:11:05.424Z,8976.00
2018-05-21T08:12:05.446Z,9060.00
2018-05-21T08:13:05.457Z,9032.00
2018-05-21T08:14:05.455Z,9016.00
2018-05-21T08:15:05.469Z,8964.00
2018-05-21T08:16:05.476Z,9008.00
2018-05-21T08:17:05.498Z,9084.00
2018-05-21T08:18:05.500Z,8960.00
2018-05-21T08:19:05.507Z,8628.00
2018-05-21T08:20:05.518Z,8104.00
2018-05-21T08:21:05.526Z,7396.00
2018-05-21T08:22:05.541Z,6468.00
2018-05-21T08:23:05.544Z,5336.00
2018-05-21T08:24:06.089Z,4044.00
2018-05-21T08:25:05.567Z,3316.00
2018-05-21T08:26:05.626Z,3080.00
2018-05-21T08:27:05.584Z,3068.00
2018-05-21T08:28:05.625Z,3044.00
2018-05-21T08:29:05.610Z,3080.00
2018-05-21T08:30:05.626Z,3064.00
2018-05-21T08:31:05.622Z,3100.00
2018-05-21T08:32:05.635Z,3132.00
2018-05-21T08:33:05.645Z,3108.00
2018-05-21T08:34:05.679Z,3140.00
2018-05-21T08:35:05.664Z,3128.00
2018-05-21T08:36:05.690Z,3132.00
2018-05-21T08:37:05.678Z,3156.00
2018-05-21T08:38:05.684Z,3152.00
2018-05-21T08:39:05.694Z,3188.00
2018-05-21T08:40:05.705Z,3228.00
2018-05-21T08:41:05.713Z,3212.00
2018-05-21T08:42:05.748Z,3192.00
2018-05-21T08:43:05.757Z,3232.00
2018-05-21T08:44:05.737Z,3208.00
2018-05-21T08:45:05.750Z,3228.00
2018-05-21T08:46:05.757Z,3252.00
2018-05-21T08:47:05.756Z,3272.00
2018-05-21T08:48:05.763Z,3272.00
2018-05-21T08:49:05.772Z,3308.00
2018-05-21T08:50:05.779Z,3304.00
2018-05-21T08:51:05.791Z,3312.00
2018-05-21T08:52:05.790Z,3288.00
2018-05-21T08:53:05.798Z,3296.00
2018-05-21T08:54:05.803Z,3324.00
2018-05-21T08:55:05.908Z,3320.00
2018-05-21T08:56:05.822Z,3312.00
2018-05-21T08:57:05.832Z,3328.00
2018-05-21T08:58:05.825Z,3268.00
2018-05-21T08:59:05.834Z,3328.00
2018-05-21T09:00:05.848Z,3336.00
2018-05-21T09:01:05.874Z,3344.00
2018-05-21T09:02:05.852Z,3364.00
2018-05-21T09:03:05.924Z,3356.00
2018-05-21T09:04:05.872Z,3340.00
2018-05-21T09:05:05.884Z,3348.00
2018-05-21T09:06:05.880Z,3352.00
2018-05-21T09:07:05.891Z,3364.00
2018-05-21T09:08:05.896Z,3368.00
2018-05-21T09:09:14.573Z,3384.00
2018-05-21T09:11:00.323Z,3392.00
2018-05-21T09:12:00.781Z,3412.00
2018-05-21T09:13:55.880Z,3400.00
2018-05-21T09:14:55.799Z,3424.00
2018-05-21T09:16:50.190Z,3420.00
2018-05-21T09:17:50.136Z,3416.00
2018-05-21T09:19:44.535Z,3408.00
2018-05-21T09:20:44.680Z,3416.00
2018-05-21T09:22:38.997Z,3404.00
2018-05-21T09:23:38.891Z,3424.00
2018-05-21T09:25:33.456Z,3412.00
2018-05-21T09:26:33.328Z,3416.00
2018-05-21T09:28:27.759Z,3444.00
2018-05-21T09:29:27.691Z,3432.00
2018-05-21T09:31:23.130Z,3432.00
2018-05-21T09:32:23.161Z,3432.00
2018-05-21T09:34:30.562Z,3476.00
2018-05-21T09:35:30.522Z,3444.00
2018-05-21T09:36:30.591Z,3460.00
2018-05-21T09:37:30.627Z,3508.00
2018-05-21T09:38:40.244Z,3572.00
2018-05-21T09:39:30.740Z,3520.00
2018-05-21T09:40:30.550Z,3468.00
2018-05-21T09:41:30.613Z,3456.00
2018-05-21T09:42:33.514Z,3480.00
2018-05-21T09:43:30.627Z,3456.00
2018-05-21T09:44:30.563Z,3416.00
2018-05-21T09:45:30.602Z,3412.00
2018-05-21T09:46:30.646Z,3452.00
2018-05-21T09:47:30.633Z,3536.00
2018-05-21T09:48:30.624Z,3532.00
2018-05-21T09:49:30.676Z,3540.00
2018-05-21T09:50:31.463Z,2004.00
2018-05-21T09:51:31.661Z,3524.00
2018-05-21T09:52:30.720Z,3508.00
2018-05-21T09:53:30.646Z,3464.00
2018-05-21T09:54:30.657Z,3516.00
2018-05-21T09:55:30.724Z,3604.00
2018-05-21T09:56:30.640Z,3620.00
2018-05-21T09:57:31.846Z,3716.00
2018-05-21T09:58:56.962Z,3564.00
2018-05-21T09:59:49.379Z,3508.00
2018-05-21T10:01:40.222Z,3576.00
2018-05-21T10:02:29.688Z,3660.00
2018-05-21T10:04:29.656Z,3876.00
2018-05-21T10:05:29.606Z,3888.00
2018-05-21T10:06:29.571Z,2632.00
2018-05-21T10:07:29.634Z,2668.00
2018-05-21T10:08:29.603Z,3836.00
2018-05-21T10:09:29.608Z,2588.00
2018-05-21T10:10:30.472Z,1916.00
2018-05-21T10:11:29.631Z,2544.00
2018-05-21T10:12:30.473Z,3616.00
2018-05-21T10:13:29.621Z,3700.00
2018-05-21T10:14:29.626Z,3860.00
2018-05-21T10:15:29.628Z,3860.00
2018-05-21T10:16:29.680Z,3744.00
2018-05-21T10:17:29.651Z,3708.00
2018-05-21T10:18:30.479Z,3700.00
2018-05-21T10:19:29.706Z,2168.00
2018-05-21T10:20:29.690Z,3972.00
2018-05-21T10:21:29.679Z,4100.00
2018-05-21T10:22:29.690Z,4044.00
2018-05-21T10:23:29.722Z,4088.00
2018-05-21T10:24:29.693Z,2420.00
2018-05-21T10:25:29.743Z,2364.00
2018-05-21T10:26:29.741Z,3684.00
2018-05-21T10:27:29.786Z,3780.00
2018-05-21T10:28:29.764Z,3540.00
2018-05-21T10:29:29.864Z,3372.00
2018-05-21T10:30:29.785Z,3432.00
2018-05-21T10:31:29.761Z,3516.00
2018-05-21T10:32:29.815Z,3612.00
2018-05-21T10:33:29.799Z,3440.00
2018-05-21T10:34:29.766Z,3308.00
2018-05-21T10:35:29.834Z,3304.00
2018-05-21T10:36:29.823Z,3372.00
2018-05-21T10:37:29.784Z,3572.00
2018-05-21T10:38:31.721Z,3612.00
2018-05-21T10:39:31.759Z,3676.00
2018-05-21T10:40:31.702Z,3652.00
2018-05-21T10:41:31.597Z,3608.00
2018-05-21T10:42:29.864Z,3520.00
2018-05-21T10:43:30.036Z,2948.00
2018-05-21T10:44:29.849Z,3480.00
2018-05-21T10:45:29.922Z,3348.00
2018-05-21T10:46:29.840Z,3268.00
2018-05-21T10:47:31.587Z,3352.00
2018-05-21T10:48:29.926Z,3332.00
2018-05-21T10:49:49.591Z,3316.00
2018-05-21T10:51:30.575Z,3392.00
2018-05-21T10:52:30.500Z,2080.00
2018-05-21T10:53:30.435Z,3400.00
2018-05-21T10:54:30.448Z,1936.00
2018-05-21T10:55:30.471Z,3420.00
2018-05-21T10:56:33.488Z,3448.00
2018-05-21T10:57:53.140Z,3440.00
2018-05-21T10:59:24.985Z,3424.00
2018-05-21T11:00:24.985Z,3412.00
2018-05-21T11:01:24.948Z,3288.00
2018-05-21T11:02:24.901Z,3544.00
2018-05-21T11:03:34.652Z,3640.00
2018-05-21T11:05:28.320Z,3132.00
2018-05-21T11:06:28.269Z,3108.00
2018-05-21T11:08:23.681Z,3396.00
2018-05-21T11:09:23.866Z,3284.00
2018-05-21T11:10:23.704Z,3272.00
2018-05-21T11:11:24.349Z,3180.00
2018-05-21T11:12:23.666Z,2904.00
2018-05-21T11:13:23.746Z,2012.00
2018-05-21T11:14:23.687Z,3332.00
2018-05-21T11:15:23.667Z,3324.00
2018-05-21T11:16:23.705Z,3308.00
2018-05-21T11:17:23.706Z,3252.00
2018-05-21T11:18:23.690Z,3344.00
2018-05-21T11:19:23.693Z,3420.00
2018-05-21T11:20:23.706Z,3460.00
2018-05-21T11:21:23.709Z,3556.00
2018-05-21T11:22:23.726Z,3568.00
2018-05-21T11:23:23.717Z,3536.00
2018-05-21T11:24:23.725Z,3516.00
2018-05-21T11:25:23.773Z,3324.00
2018-05-21T11:26:23.844Z,3212.00
2018-05-21T11:27:23.748Z,3196.00
2018-05-21T11:28:23.834Z,3152.00
2018-05-21T11:29:23.798Z,3172.00
2018-05-21T11:30:23.770Z,3388.00
2018-05-21T11:31:23.789Z,3452.00
2018-05-21T11:32:26.757Z,3384.00
2018-05-21T11:33:24.716Z,3396.00
2018-05-21T11:34:23.822Z,3068.00
2018-05-21T11:35:23.808Z,1836.00
2018-05-21T11:37:48.313Z,1656.00
2018-05-21T11:38:48.280Z,2996.00
2018-05-21T11:40:42.832Z,3176.00
2018-05-21T11:41:42.755Z,3132.00
2018-05-21T11:42:42.730Z,3024.00
2018-05-21T11:43:42.739Z,2976.00
2018-05-21T11:44:43.273Z,2772.00
2018-05-21T11:45:42.826Z,1816.00
2018-05-21T11:46:42.716Z,2972.00
2018-05-21T11:47:42.746Z,2976.00
2018-05-21T11:48:42.739Z,2928.00
2018-05-21T11:51:12.132Z,2900.00
2018-05-21T11:52:10.302Z,3016.00
2018-05-21T11:54:06.137Z,2976.00
2018-05-21T11:56:32.663Z,3200.00
2018-05-21T11:59:28.061Z,2984.00
2018-05-21T12:00:17.295Z,2892.00
2018-05-21T12:03:57.673Z,1852.00
2018-05-21T12:05:00.580Z,1932.00
2018-05-21T12:12:11.282Z,2884.00
2018-05-21T12:14:54.332Z,2808.00
2018-05-21T12:15:55.200Z,3060.00
2018-05-21T12:18:53.533Z,2892.00
2018-05-21T12:19:33.374Z,2756.00
2018-05-21T12:22:37.876Z,1512.00
2018-05-21T12:25:01.120Z,2688.00
2018-05-21T12:26:01.221Z,2620.00
2018-05-21T12:27:55.532Z,2692.00
2018-05-21T12:28:56.078Z,2672.00
2018-05-21T12:30:49.900Z,2712.00
2018-05-21T12:31:49.916Z,2640.00
2018-05-21T12:33:44.330Z,2560.00
2018-05-21T12:34:44.231Z,2564.00
2018-05-21T12:36:38.645Z,2560.00
2018-05-21T12:37:38.687Z,2084.00
2018-05-21T12:39:35.011Z,2652.00
2018-05-21T12:40:34.324Z,2656.00
2018-05-21T12:42:28.726Z,2580.00
2018-05-21T12:43:28.711Z,2500.00
2018-05-21T12:45:23.113Z,2420.00
2018-05-21T12:46:23.096Z,2432.00
2018-05-21T12:47:23.112Z,2432.00
2018-05-21T12:48:23.102Z,2452.00
2018-05-21T12:49:23.103Z,1740.00
2018-05-21T12:50:23.110Z,1848.00
2018-05-21T12:51:23.117Z,2540.00
2018-05-21T12:52:23.125Z,2516.00
2018-05-21T12:53:23.141Z,2516.00
2018-05-21T12:54:23.148Z,2496.00
2018-05-21T12:55:24.582Z,2476.00
2018-05-21T12:56:23.147Z,2452.00
2018-05-21T12:57:23.164Z,1768.00
2018-05-21T12:58:23.166Z,1540.00
2018-05-21T12:59:23.172Z,2472.00
2018-05-21T13:00:23.195Z,2444.00
2018-05-21T13:01:23.243Z,1896.00
2018-05-21T13:02:26.405Z,1776.00
2018-05-21T13:03:23.202Z,1460.00
2018-05-21T13:04:23.203Z,1456.00
2018-05-21T13:05:23.272Z,2352.00
2018-05-21T13:06:24.148Z,2356.00
2018-05-21T13:07:23.491Z,2384.00
2018-05-21T13:08:23.250Z,2372.00
2018-05-21T13:09:23.356Z,2364.00
2018-05-21T13:10:23.328Z,2392.00
2018-05-21T13:11:23.285Z,2404.00
2018-05-21T13:12:23.481Z,2332.00
2018-05-21T13:13:23.268Z,2288.00
2018-05-21T13:14:23.358Z,2244.00
2018-05-21T13:15:23.378Z,2252.00
2018-05-21T13:16:23.293Z,1388.00
2018-05-21T13:17:23.322Z,1872.00
2018-05-21T13:18:23.308Z,2212.00
2018-05-21T13:19:23.305Z,2280.00
2018-05-21T13:20:23.309Z,2324.00
2018-05-21T13:21:23.315Z,1780.00